createdAt,value
2018-04-06T00:05:08.000Z,33.2
2018-04-06T00:15:08.000Z,32.4
2018-04-06T00:25:08.000Z,32.2
2018-04-06T00:35:08.000Z,32.4
2018-04-06T00:45:08.000Z,32.4
2018-04-06T00:55:08.000Z,32.6
2018-04-06T01:05:08.000Z,32.8
2018-04-06T01:15:08.000Z,33.1
2018-04-06T01:25:08.000Z,33
2018-04-06T01:35:09.000Z,33.1
2018-04-06T01:45:08.000Z,33
2018-04-06T01:55:08.000Z,32.8
2018-04-06T02:05:08.000Z,33
2018-04-06T02:15:08.000Z,33.2
2018-04-06T02:25:09.000Z,33.7
2018-04-06T02:35:09.000Z,33.7
2018-04-06T02:45:09.000Z,33.8
2018-04-06T02:55:09.000Z,33.7
2018-04-06T03:05:09.000Z,34
2018-04-06T03:15:09.000Z,33.8
2018-04-06T03:25:09.000Z,33.9
2018-04-06T03:35:09.000Z,33.6
2018-04-06T03:45:09.000Z,34.5
2018-04-06T03:55:09.000Z,33.5
2018-04-06T04:05:09.000Z,33.6
2018-04-06T04:15:09.000Z,33.4
2018-04-06T04:25:09.000Z,33.7
2018-04-06T04:35:09.000Z,33.8
2018-04-06T04:45:09.000Z,33.9
2018-04-06T04:55:09.000Z,33.9
2018-04-06T05:05:09.000Z,34
2018-04-06T05:15:09.000Z,34
2018-04-06T05:25:09.000Z,34.1
2018-04-06T05:35:09.000Z,34
2018-04-06T05:45:09.000Z,34.2
2018-04-06T05:55:09.000Z,34.1
2018-04-06T06:05:09.000Z,34.3
2018-04-06T06:15:09.000Z,34.9
2018-04-06T06:25:09.000Z,35.3
2018-04-06T06:35:09.000Z,33.9
2018-04-06T06:45:09.000Z,35.4
2018-04-06T06:55:09.000Z,33.7
2018-04-06T07:05:09.000Z,33.8
2018-04-06T07:15:09.000Z,34
2018-04-06T07:25:09.000Z,34
2018-04-06T07:35:09.000Z,33.5
2018-04-06T07:45:09.000Z,33.6
2018-04-06T07:55:09.000Z,33
2018-04-06T08:05:09.000Z,33
2018-04-06T08:15:09.000Z,33
2018-04-06T08:25:09.000Z,33.4
2018-04-06T08:35:09.000Z,32.9
2018-04-06T08:45:09.000Z,33.5
2018-04-06T08:55:09.000Z,43.9
2018-04-06T09:05:09.000Z,45.2
2018-04-06T09:15:09.000Z,44.8
2018-04-06T09:25:09.000Z,45.5
2018-04-06T09:35:09.000Z,47.4
2018-04-06T09:45:10.000Z,47.6
2018-04-06T09:55:10.000Z,47.6
2018-04-06T10:05:10.000Z,47.8
2018-04-06T10:15:10.000Z,47.7
2018-04-06T10:25:10.000Z,47.5
2018-04-06T10:35:10.000Z,47.3
2018-04-06T10:45:10.000Z,47.7
2018-04-06T10:55:10.000Z,47.6
2018-04-06T11:05:10.000Z,47.7
2018-04-06T11:15:10.000Z,47.7
2018-04-06T11:25:10.000Z,48.1
2018-04-06T11:35:10.000Z,48.5
2018-04-06T11:45:10.000Z,48.9
2018-04-06T11:55:10.000Z,50
2018-04-06T12:05:10.000Z,50.5
2018-04-06T12:15:10.000Z,48.6
2018-04-06T12:25:11.000Z,48.2
2018-04-06T12:35:10.000Z,49.9
2018-04-06T12:45:10.000Z,51.3
2018-04-06T12:55:10.000Z,50.5
2018-04-06T13:05:10.000Z,51.1
2018-04-06T13:15:10.000Z,50.3
2018-04-06T13:25:10.000Z,49.7
2018-04-06T13:35:10.000Z,48.7
2018-04-06T13:45:10.000Z,49
2018-04-06T13:55:10.000Z,51.6
2018-04-06T14:05:10.000Z,53.4
2018-04-06T14:15:10.000Z,54.9
2018-04-06T14:25:10.000Z,56.5
2018-04-06T14:35:10.000Z,55.9
2018-04-06T14:45:10.000Z,56.8
2018-04-06T14:55:10.000Z,56.9
2018-04-06T15:05:10.000Z,56.8
2018-04-06T15:15:11.000Z,56.8
2018-04-06T15:25:10.000Z,57.6
2018-04-06T15:35:10.000Z,56.9
2018-04-06T15:45:10.000Z,58
2018-04-06T15:55:10.000Z,58.5
2018-04-06T16:05:10.000Z,58.8
2018-04-06T16:15:10.000Z,61.4
2018-04-06T16:25:10.000Z,61.4
2018-04-06T16:35:10.000Z,60.8
2018-04-06T16:45:11.000Z,60.5
2018-04-06T16:55:11.000Z,60.5
2018-04-06T17:05:11.000Z,60.4
2018-04-06T17:15:11.000Z,59.1
2018-04-06T17:25:11.000Z,59.2
2018-04-06T17:35:11.000Z,59.2
2018-04-06T17:45:11.000Z,59.2
2018-04-06T17:55:11.000Z,59
2018-04-06T18:05:11.000Z,58.9
2018-04-06T18:15:11.000Z,58.8
2018-04-06T18:25:11.000Z,58.8
2018-04-06T18:35:11.000Z,58.9
2018-04-06T18:45:11.000Z,58.4
2018-04-06T18:55:11.000Z,58
2018-04-06T19:05:11.000Z,57.7
2018-04-06T19:15:11.000Z,57.2
2018-04-06T19:25:11.000Z,57.6
2018-04-06T19:35:11.000Z,57.6
2018-04-06T19:45:11.000Z,57.4
2018-04-06T19:55:11.000Z,57.5
2018-04-06T20:05:11.000Z,56.9
2018-04-06T20:15:12.000Z,56.8
2018-04-06T20:25:11.000Z,57.5
2018-04-06T20:35:12.000Z,56.8
2018-04-06T20:45:11.000Z,56.4
2018-04-06T20:55:11.000Z,56.8
2018-04-06T21:05:11.000Z,57.3
2018-04-06T21:15:11.000Z,56.8
2018-04-06T21:25:11.000Z,56.9
2018-04-06T21:35:11.000Z,56.7
2018-04-06T21:45:11.000Z,37.6
2018-04-06T21:55:11.000Z,35.6
2018-04-06T22:05:11.000Z,32.6
2018-04-06T22:15:11.000Z,31.3
2018-04-06T22:25:13.000Z,30.9
2018-04-06T22:35:11.000Z,30.7
2018-04-06T22:45:11.000Z,30.3
2018-04-06T22:55:11.000Z,30.4
2018-04-06T23:05:13.000Z,30.6
2018-04-06T23:15:13.000Z,30.8
2018-04-06T23:25:13.000Z,30.4
2018-04-06T23:35:11.000Z,30
2018-04-06T23:45:12.000Z,29.4
2018-04-06T23:55:12.000Z,29.9
